sensor_id;sensor_type;location;lat;lon;timestamp;temperature;humidity
56044;DHT22;41912;51.022;3.664;2024-02-14T00:00:01;10.30;99.90
56044;DHT22;41912;51.022;3.664;2024-02-14T00:02:27;10.30;99.90
56044;DHT22;41912;51.022;3.664;2024-02-14T00:04:53;10.30;99.90
56044;DHT22;41912;51.022;3.664;2024-02-14T00:07:22;10.60;99.90
56044;DHT22;41912;51.022;3.664;2024-02-14T00:09:48;10.40;99.90
56044;DHT22;41912;51.022;3.664;2024-02-14T00:12:13;10.30;99.90
56044;DHT22;41912;51.022;3.664;2024-02-14T00:14:39;10.40;99.90
56044;DHT22;41912;51.022;3.664;2024-02-14T00:17:05;10.40;99.90
56044;DHT22;41912;51.022;3.664;2024-02-14T00:19:31;10.50;99.90
56044;DHT22;41912;51.022;3.664;2024-02-14T00:21:57;10.50;99.90
56044;DHT22;41912;51.022;3.664;2024-02-14T00:24:23;10.50;99.90
56044;DHT22;41912;51.022;3.664;2024-02-14T00:26:52;10.50;99.90
56044;DHT22;41912;51.022;3.664;2024-02-14T00:29:18;10.50;99.90
56044;DHT22;41912;51.022;3.664;2024-02-14T00:31:43;10.50;99.90
56044;DHT22;41912;51.022;3.664;2024-02-14T00:34:10;10.50;99.90
56044;DHT22;41912;51.022;3.664;2024-02-14T00:36:36;10.40;99.90
56044;DHT22;41912;51.022;3.664;2024-02-14T00:39:02;10.50;99.90
56044;DHT22;41912;51.022;3.664;2024-02-14T00:41:27;10.60;99.90
56044;DHT22;41912;51.022;3.664;2024-02-14T00:43:55;10.50;99.90
56044;DHT22;41912;51.022;3.664;2024-02-14T00:46:21;10.60;99.90
56044;DHT22;41912;51.022;3.664;2024-02-14T00:48:47;10.60;99.90
56044;DHT22;41912;51.022;3.664;2024-02-14T00:51:13;10.50;99.90
56044;DHT22;41912;51.022;3.664;2024-02-14T00:53:39;10.50;99.90
56044;DHT22;41912;51.022;3.664;2024-02-14T00:56:04;10.60;99.90
56044;DHT22;41912;51.022;3.664;2024-02-14T00:58:31;10.60;99.90
56044;DHT22;41912;51.022;3.664;2024-02-14T01:00:57;10.60;99.90
56044;DHT22;41912;51.022;3.664;2024-02-14T01:03:23;10.70;99.90
56044;DHT22;41912;51.022;3.664;2024-02-14T01:05:48;10.70;99.90
56044;DHT22;41912;51.022;3.664;2024-02-14T01:08:14;10.60;99.90
56044;DHT22;41912;51.022;3.664;2024-02-14T01:10:40;10.60;99.90
56044;DHT22;41912;51.022;3.664;2024-02-14T01:13:05;10.60;99.90
56044;DHT22;41912;51.022;3.664;2024-02-14T01:15:32;10.60;99.90
56044;DHT22;41912;51.022;3.664;2024-02-14T01:17:59;10.60;99.90
56044;DHT22;41912;51.022;3.664;2024-02-14T01:20:25;10.60;99.90
56044;DHT22;41912;51.022;3.664;2024-02-14T01:22:51;10.60;99.90
56044;DHT22;41912;51.022;3.664;2024-02-14T01:25:16;10.60;99.90
56044;DHT22;41912;51.022;3.664;2024-02-14T01:27:42;10.60;99.90
56044;DHT22;41912;51.022;3.664;2024-02-14T01:30:09;10.60;99.90
56044;DHT22;41912;51.022;3.664;2024-02-14T01:32:35;10.70;99.90
56044;DHT22;41912;51.022;3.664;2024-02-14T01:35:00;10.70;99.90
56044;DHT22;41912;51.022;3.664;2024-02-14T01:37:26;10.80;99.90
56044;DHT22;41912;51.022;3.664;2024-02-14T01:39:52;10.70;99.90
56044;DHT22;41912;51.022;3.664;2024-02-14T01:42:18;10.80;99.90
56044;DHT22;41912;51.022;3.664;2024-02-14T01:44:43;10.80;99.90
56044;DHT22;41912;51.022;3.664;2024-02-14T01:47:10;10.80;99.90
56044;DHT22;41912;51.022;3.664;2024-02-14T01:49:36;10.80;99.90
56044;DHT22;41912;51.022;3.664;2024-02-14T01:52:02;10.80;99.90
56044;DHT22;41912;51.022;3.664;2024-02-14T01:54:29;10.80;99.90
56044;DHT22;41912;51.022;3.664;2024-02-14T01:56:56;10.80;99.90
56044;DHT22;41912;51.022;3.664;2024-02-14T01:59:24;10.80;99.90
56044;DHT22;41912;51.022;3.664;2024-02-14T02:01:50;10.90;99.90
56044;DHT22;41912;51.022;3.664;2024-02-14T02:04:18;10.90;99.90
56044;DHT22;41912;51.022;3.664;2024-02-14T02:06:44;10.90;99.90
56044;DHT22;41912;51.022;3.664;2024-02-14T02:09:10;10.90;99.90
56044;DHT22;41912;51.022;3.664;2024-02-14T02:11:49;10.90;99.90
56044;DHT22;41912;51.022;3.664;2024-02-14T02:14:15;10.90;99.90
56044;DHT22;41912;51.022;3.664;2024-02-14T02:16:44;10.90;99.90
56044;DHT22;41912;51.022;3.664;2024-02-14T02:19:11;10.80;99.90
56044;DHT22;41912;51.022;3.664;2024-02-14T02:21:37;10.90;99.90
56044;DHT22;41912;51.022;3.664;2024-02-14T02:24:03;11.00;99.90
56044;DHT22;41912;51.022;3.664;2024-02-14T02:26:28;11.00;99.90
56044;DHT22;41912;51.022;3.664;2024-02-14T02:28:54;11.00;99.90
56044;DHT22;41912;51.022;3.664;2024-02-14T02:31:20;11.00;99.90
56044;DHT22;41912;51.022;3.664;2024-02-14T02:33:46;11.00;99.90
56044;DHT22;41912;51.022;3.664;2024-02-14T02:36:12;11.00;99.90
56044;DHT22;41912;51.022;3.664;2024-02-14T02:38:37;11.00;99.90
56044;DHT22;41912;51.022;3.664;2024-02-14T02:41:04;11.00;99.90
56044;DHT22;41912;51.022;3.664;2024-02-14T02:43:32;11.00;99.90
56044;DHT22;41912;51.022;3.664;2024-02-14T02:45:58;10.90;99.90
56044;DHT22;41912;51.022;3.664;2024-02-14T02:48:24;10.90;99.90
56044;DHT22;41912;51.022;3.664;2024-02-14T02:50:50;10.90;99.90
56044;DHT22;41912;51.022;3.664;2024-02-14T02:53:16;10.90;99.90
56044;DHT22;41912;51.022;3.664;2024-02-14T02:55:42;11.00;99.90
56044;DHT22;41912;51.022;3.664;2024-02-14T02:58:08;10.90;99.90
56044;DHT22;41912;51.022;3.664;2024-02-14T03:00:34;10.90;99.90
56044;DHT22;41912;51.022;3.664;2024-02-14T03:03:00;10.90;99.90
56044;DHT22;41912;51.022;3.664;2024-02-14T03:05:26;11.00;99.90
56044;DHT22;41912;51.022;3.664;2024-02-14T03:07:52;11.00;99.90
56044;DHT22;41912;51.022;3.664;2024-02-14T03:10:18;11.00;99.90
56044;DHT22;41912;51.022;3.664;2024-02-14T03:12:46;11.10;99.90
56044;DHT22;41912;51.022;3.664;2024-02-14T03:15:12;11.00;99.90
56044;DHT22;41912;51.022;3.664;2024-02-14T03:17:39;11.00;99.90
56044;DHT22;41912;51.022;3.664;2024-02-14T03:20:05;10.90;99.90
56044;DHT22;41912;51.022;3.664;2024-02-14T03:22:43;10.90;99.90
56044;DHT22;41912;51.022;3.664;2024-02-14T03:25:17;11.00;99.90
56044;DHT22;41912;51.022;3.664;2024-02-14T03:27:43;11.00;99.90
56044;DHT22;41912;51.022;3.664;2024-02-14T03:30:12;11.00;99.90
56044;DHT22;41912;51.022;3.664;2024-02-14T03:32:38;11.00;99.90
56044;DHT22;41912;51.022;3.664;2024-02-14T03:35:04;11.00;99.90
56044;DHT22;41912;51.022;3.664;2024-02-14T03:37:31;11.00;99.90
56044;DHT22;41912;51.022;3.664;2024-02-14T03:39:57;11.00;99.90
56044;DHT22;41912;51.022;3.664;2024-02-14T03:42:23;11.00;99.90
56044;DHT22;41912;51.022;3.664;2024-02-14T03:44:48;11.00;99.90
56044;DHT22;41912;51.022;3.664;2024-02-14T03:47:14;11.10;99.90
56044;DHT22;41912;51.022;3.664;2024-02-14T03:49:40;11.10;99.90
56044;DHT22;41912;51.022;3.664;2024-02-14T03:52:06;11.10;99.90
56044;DHT22;41912;51.022;3.664;2024-02-14T03:54:38;11.10;99.90
56044;DHT22;41912;51.022;3.664;2024-02-14T03:57:04;11.10;99.90
56044;DHT22;41912;51.022;3.664;2024-02-14T03:59:32;11.10;99.90
56044;DHT22;41912;51.022;3.664;2024-02-14T04:01:58;11.10;99.90
56044;DHT22;41912;51.022;3.664;2024-02-14T04:04:24;11.10;99.90
56044;DHT22;41912;51.022;3.664;2024-02-14T04:06:49;11.10;99.90
56044;DHT22;41912;51.022;3.664;2024-02-14T04:09:15;11.20;99.90
56044;DHT22;41912;51.022;3.664;2024-02-14T04:11:40;11.20;99.90
56044;DHT22;41912;51.022;3.664;2024-02-14T04:14:06;11.20;99.90
56044;DHT22;41912;51.022;3.664;2024-02-14T04:16:32;11.20;99.90
56044;DHT22;41912;51.022;3.664;2024-02-14T04:18:58;11.30;99.90
56044;DHT22;41912;51.022;3.664;2024-02-14T04:21:24;11.30;99.90
56044;DHT22;41912;51.022;3.664;2024-02-14T04:23:50;11.30;99.90
56044;DHT22;41912;51.022;3.664;2024-02-14T04:26:22;11.30;99.90
56044;DHT22;41912;51.022;3.664;2024-02-14T04:28:48;11.30;99.90
56044;DHT22;41912;51.022;3.664;2024-02-14T04:31:14;11.30;99.90
56044;DHT22;41912;51.022;3.664;2024-02-14T04:33:39;11.30;99.90
56044;DHT22;41912;51.022;3.664;2024-02-14T04:36:05;11.20;99.90
56044;DHT22;41912;51.022;3.664;2024-02-14T04:38:31;11.30;99.90
56044;DHT22;41912;51.022;3.664;2024-02-14T04:40:57;11.30;99.90
56044;DHT22;41912;51.022;3.664;2024-02-14T04:43:25;11.30;99.90
56044;DHT22;41912;51.022;3.664;2024-02-14T04:45:52;11.30;99.90
56044;DHT22;41912;51.022;3.664;2024-02-14T04:48:17;11.30;99.90
56044;DHT22;41912;51.022;3.664;2024-02-14T04:50:43;11.30;99.90
56044;DHT22;41912;51.022;3.664;2024-02-14T04:53:09;11.30;99.90
56044;DHT22;41912;51.022;3.664;2024-02-14T04:55:34;11.40;99.90
56044;DHT22;41912;51.022;3.664;2024-02-14T04:58:00;11.40;99.90
56044;DHT22;41912;51.022;3.664;2024-02-14T05:00:26;11.40;99.90
56044;DHT22;41912;51.022;3.664;2024-02-14T05:02:51;11.40;99.90
56044;DHT22;41912;51.022;3.664;2024-02-14T05:05:17;11.40;99.90
56044;DHT22;41912;51.022;3.664;2024-02-14T05:07:43;11.40;99.90
56044;DHT22;41912;51.022;3.664;2024-02-14T05:10:09;11.40;99.90
56044;DHT22;41912;51.022;3.664;2024-02-14T05:12:34;11.40;99.90
56044;DHT22;41912;51.022;3.664;2024-02-14T05:15:00;11.40;99.90
56044;DHT22;41912;51.022;3.664;2024-02-14T05:17:25;11.50;99.90
56044;DHT22;41912;51.022;3.664;2024-02-14T05:19:51;11.50;99.90
56044;DHT22;41912;51.022;3.664;2024-02-14T05:22:17;11.50;99.90
56044;DHT22;41912;51.022;3.664;2024-02-14T05:24:42;11.40;99.90
56044;DHT22;41912;51.022;3.664;2024-02-14T05:27:08;11.40;99.90
56044;DHT22;41912;51.022;3.664;2024-02-14T05:29:33;11.40;99.90
56044;DHT22;41912;51.022;3.664;2024-02-14T05:31:59;11.50;99.90
56044;DHT22;41912;51.022;3.664;2024-02-14T05:34:25;11.40;99.90
56044;DHT22;41912;51.022;3.664;2024-02-14T05:36:50;11.40;99.90
56044;DHT22;41912;51.022;3.664;2024-02-14T05:39:17;11.40;99.90
56044;DHT22;41912;51.022;3.664;2024-02-14T05:41:44;11.50;99.90
56044;DHT22;41912;51.022;3.664;2024-02-14T05:44:10;11.50;99.90
56044;DHT22;41912;51.022;3.664;2024-02-14T05:46:35;11.50;99.90
56044;DHT22;41912;51.022;3.664;2024-02-14T05:49:01;11.50;99.90
56044;DHT22;41912;51.022;3.664;2024-02-14T05:51:26;11.50;99.90
56044;DHT22;41912;51.022;3.664;2024-02-14T05:53:52;11.50;99.90
56044;DHT22;41912;51.022;3.664;2024-02-14T05:56:18;11.50;99.90
56044;DHT22;41912;51.022;3.664;2024-02-14T05:58:43;11.50;99.90
56044;DHT22;41912;51.022;3.664;2024-02-14T06:01:09;11.50;99.90
56044;DHT22;41912;51.022;3.664;2024-02-14T06:03:35;11.50;99.90
56044;DHT22;41912;51.022;3.664;2024-02-14T06:06:00;11.50;99.90
56044;DHT22;41912;51.022;3.664;2024-02-14T06:08:26;11.50;99.90
56044;DHT22;41912;51.022;3.664;2024-02-14T06:10:54;11.50;99.90
56044;DHT22;41912;51.022;3.664;2024-02-14T06:13:20;11.60;99.90
56044;DHT22;41912;51.022;3.664;2024-02-14T06:15:46;11.60;99.90
56044;DHT22;41912;51.022;3.664;2024-02-14T06:18:11;11.60;99.90
56044;DHT22;41912;51.022;3.664;2024-02-14T06:20:37;11.50;99.90
56044;DHT22;41912;51.022;3.664;2024-02-14T06:23:04;11.60;99.90
56044;DHT22;41912;51.022;3.664;2024-02-14T06:25:30;11.70;99.90
56044;DHT22;41912;51.022;3.664;2024-02-14T06:27:56;11.70;99.90
56044;DHT22;41912;51.022;3.664;2024-02-14T06:30:21;11.70;99.90
56044;DHT22;41912;51.022;3.664;2024-02-14T06:32:47;11.60;99.90
56044;DHT22;41912;51.022;3.664;2024-02-14T06:35:12;11.60;99.90
56044;DHT22;41912;51.022;3.664;2024-02-14T06:37:40;11.60;99.90
56044;DHT22;41912;51.022;3.664;2024-02-14T06:40:06;11.60;99.90
56044;DHT22;41912;51.022;3.664;2024-02-14T06:42:34;11.60;99.90
56044;DHT22;41912;51.022;3.664;2024-02-14T06:44:59;11.60;99.90
56044;DHT22;41912;51.022;3.664;2024-02-14T06:47:25;11.70;99.90
56044;DHT22;41912;51.022;3.664;2024-02-14T06:49:55;11.70;99.90
56044;DHT22;41912;51.022;3.664;2024-02-14T06:52:21;11.70;99.90
56044;DHT22;41912;51.022;3.664;2024-02-14T06:54:46;11.60;99.90
56044;DHT22;41912;51.022;3.664;2024-02-14T06:57:13;11.60;99.90
56044;DHT22;41912;51.022;3.664;2024-02-14T06:59:39;11.70;99.90
56044;DHT22;41912;51.022;3.664;2024-02-14T07:02:05;11.70;99.90
56044;DHT22;41912;51.022;3.664;2024-02-14T07:04:31;11.70;99.90
56044;DHT22;41912;51.022;3.664;2024-02-14T07:06:57;11.60;99.90
56044;DHT22;41912;51.022;3.664;2024-02-14T07:09:23;11.60;99.90
56044;DHT22;41912;51.022;3.664;2024-02-14T07:11:50;11.50;99.90
56044;DHT22;41912;51.022;3.664;2024-02-14T07:14:19;11.60;99.90
56044;DHT22;41912;51.022;3.664;2024-02-14T07:16:45;11.60;99.90
56044;DHT22;41912;51.022;3.664;2024-02-14T07:19:10;11.60;99.90
56044;DHT22;41912;51.022;3.664;2024-02-14T07:21:36;11.70;99.90
56044;DHT22;41912;51.022;3.664;2024-02-14T07:24:04;11.70;99.90
56044;DHT22;41912;51.022;3.664;2024-02-14T07:26:30;11.70;99.90
56044;DHT22;41912;51.022;3.664;2024-02-14T07:28:56;11.70;99.90
56044;DHT22;41912;51.022;3.664;2024-02-14T07:31:22;11.70;99.90
56044;DHT22;41912;51.022;3.664;2024-02-14T07:33:48;11.80;99.90
56044;DHT22;41912;51.022;3.664;2024-02-14T07:36:14;11.80;99.90
56044;DHT22;41912;51.022;3.664;2024-02-14T07:38:40;11.80;99.90
56044;DHT22;41912;51.022;3.664;2024-02-14T07:41:08;11.80;99.90
56044;DHT22;41912;51.022;3.664;2024-02-14T07:43:33;11.80;99.90
56044;DHT22;41912;51.022;3.664;2024-02-14T07:45:59;11.80;99.90
56044;DHT22;41912;51.022;3.664;2024-02-14T07:48:25;11.80;99.90
56044;DHT22;41912;51.022;3.664;2024-02-14T07:50:50;11.80;99.90
56044;DHT22;41912;51.022;3.664;2024-02-14T07:53:16;11.80;99.90
56044;DHT22;41912;51.022;3.664;2024-02-14T07:55:42;11.70;99.90
56044;DHT22;41912;51.022;3.664;2024-02-14T07:58:07;11.70;99.90
56044;DHT22;41912;51.022;3.664;2024-02-14T08:00:33;11.70;99.90
56044;DHT22;41912;51.022;3.664;2024-02-14T08:02:58;11.70;99.90
56044;DHT22;41912;51.022;3.664;2024-02-14T08:05:24;11.70;99.90
56044;DHT22;41912;51.022;3.664;2024-02-14T08:07:50;11.70;99.90
56044;DHT22;41912;51.022;3.664;2024-02-14T08:10:16;11.70;99.90
56044;DHT22;41912;51.022;3.664;2024-02-14T08:12:42;11.80;99.90
56044;DHT22;41912;51.022;3.664;2024-02-14T08:15:08;11.80;99.90
56044;DHT22;41912;51.022;3.664;2024-02-14T08:17:34;11.70;99.90
56044;DHT22;41912;51.022;3.664;2024-02-14T08:20:01;11.80;99.90
56044;DHT22;41912;51.022;3.664;2024-02-14T08:22:26;11.80;99.90
56044;DHT22;41912;51.022;3.664;2024-02-14T08:24:52;11.70;99.90
56044;DHT22;41912;51.022;3.664;2024-02-14T08:27:18;11.80;99.90
56044;DHT22;41912;51.022;3.664;2024-02-14T08:29:44;11.80;99.90
56044;DHT22;41912;51.022;3.664;2024-02-14T08:32:09;11.80;99.90
56044;DHT22;41912;51.022;3.664;2024-02-14T08:34:35;11.80;99.90
56044;DHT22;41912;51.022;3.664;2024-02-14T08:37:00;11.80;99.90
56044;DHT22;41912;51.022;3.664;2024-02-14T08:39:26;11.80;99.90
56044;DHT22;41912;51.022;3.664;2024-02-14T08:41:51;11.80;99.90
56044;DHT22;41912;51.022;3.664;2024-02-14T08:44:18;11.90;99.90
56044;DHT22;41912;51.022;3.664;2024-02-14T08:46:44;11.90;99.90
56044;DHT22;41912;51.022;3.664;2024-02-14T08:49:13;11.90;99.90
56044;DHT22;41912;51.022;3.664;2024-02-14T08:51:39;12.00;99.90
56044;DHT22;41912;51.022;3.664;2024-02-14T08:54:05;11.90;99.90
56044;DHT22;41912;51.022;3.664;2024-02-14T08:56:34;12.00;99.90
56044;DHT22;41912;51.022;3.664;2024-02-14T08:59:02;12.00;99.90
56044;DHT22;41912;51.022;3.664;2024-02-14T09:01:31;12.00;99.90
56044;DHT22;41912;51.022;3.664;2024-02-14T09:03:57;12.10;99.90
56044;DHT22;41912;51.022;3.664;2024-02-14T09:06:24;12.10;99.90
56044;DHT22;41912;51.022;3.664;2024-02-14T09:08:50;12.00;99.90
56044;DHT22;41912;51.022;3.664;2024-02-14T09:11:21;12.00;99.90
56044;DHT22;41912;51.022;3.664;2024-02-14T09:13:48;12.00;99.90
56044;DHT22;41912;51.022;3.664;2024-02-14T09:16:16;12.00;99.90
56044;DHT22;41912;51.022;3.664;2024-02-14T09:18:44;12.10;99.90
56044;DHT22;41912;51.022;3.664;2024-02-14T09:21:10;12.00;99.90
56044;DHT22;41912;51.022;3.664;2024-02-14T09:23:36;12.10;99.90
56044;DHT22;41912;51.022;3.664;2024-02-14T09:26:05;12.00;99.90
56044;DHT22;41912;51.022;3.664;2024-02-14T09:28:31;12.00;99.90
56044;DHT22;41912;51.022;3.664;2024-02-14T09:30:58;12.10;99.90
56044;DHT22;41912;51.022;3.664;2024-02-14T09:33:24;12.10;99.90
56044;DHT22;41912;51.022;3.664;2024-02-14T09:35:50;12.10;99.90
56044;DHT22;41912;51.022;3.664;2024-02-14T09:38:17;12.00;99.90
56044;DHT22;41912;51.022;3.664;2024-02-14T09:40:43;12.00;99.90
56044;DHT22;41912;51.022;3.664;2024-02-14T09:43:37;12.10;99.90
56044;DHT22;41912;51.022;3.664;2024-02-14T09:46:03;12.00;99.90
56044;DHT22;41912;51.022;3.664;2024-02-14T09:48:30;12.00;99.90
56044;DHT22;41912;51.022;3.664;2024-02-14T09:50:57;12.10;99.90
56044;DHT22;41912;51.022;3.664;2024-02-14T09:53:23;12.10;99.90
56044;DHT22;41912;51.022;3.664;2024-02-14T09:55:50;12.20;99.90
56044;DHT22;41912;51.022;3.664;2024-02-14T09:58:16;12.20;99.90
56044;DHT22;41912;51.022;3.664;2024-02-14T10:00:42;12.20;99.90
56044;DHT22;41912;51.022;3.664;2024-02-14T10:03:08;12.20;99.90
56044;DHT22;41912;51.022;3.664;2024-02-14T10:05:34;12.20;99.90
56044;DHT22;41912;51.022;3.664;2024-02-14T10:08:00;12.20;99.90
56044;DHT22;41912;51.022;3.664;2024-02-14T10:10:27;12.20;99.90
56044;DHT22;41912;51.022;3.664;2024-02-14T10:12:56;12.20;99.90
56044;DHT22;41912;51.022;3.664;2024-02-14T10:15:23;12.30;99.90
56044;DHT22;41912;51.022;3.664;2024-02-14T10:17:49;12.30;99.90
56044;DHT22;41912;51.022;3.664;2024-02-14T10:20:18;12.30;99.90
56044;DHT22;41912;51.022;3.664;2024-02-14T10:22:45;12.20;99.90
56044;DHT22;41912;51.022;3.664;2024-02-14T10:25:11;12.30;99.90
56044;DHT22;41912;51.022;3.664;2024-02-14T10:27:40;12.30;99.90
56044;DHT22;41912;51.022;3.664;2024-02-14T10:30:07;12.30;99.90
56044;DHT22;41912;51.022;3.664;2024-02-14T10:32:39;12.40;99.90
56044;DHT22;41912;51.022;3.664;2024-02-14T10:35:14;12.40;99.90
56044;DHT22;41912;51.022;3.664;2024-02-14T10:37:40;12.50;99.90
56044;DHT22;41912;51.022;3.664;2024-02-14T10:40:07;12.50;99.90
56044;DHT22;41912;51.022;3.664;2024-02-14T10:42:34;12.50;99.90
56044;DHT22;41912;51.022;3.664;2024-02-14T10:45:01;12.50;99.90
56044;DHT22;41912;51.022;3.664;2024-02-14T10:47:31;12.50;99.90
56044;DHT22;41912;51.022;3.664;2024-02-14T10:50:01;12.60;99.90
56044;DHT22;41912;51.022;3.664;2024-02-14T10:52:31;12.60;99.90
56044;DHT22;41912;51.022;3.664;2024-02-14T10:55:00;12.50;99.90
56044;DHT22;41912;51.022;3.664;2024-02-14T10:57:27;12.50;99.90
56044;DHT22;41912;51.022;3.664;2024-02-14T10:59:54;12.50;99.90
56044;DHT22;41912;51.022;3.664;2024-02-14T11:02:22;12.60;99.90
56044;DHT22;41912;51.022;3.664;2024-02-14T11:04:49;12.70;99.90
56044;DHT22;41912;51.022;3.664;2024-02-14T11:07:20;12.60;99.90
56044;DHT22;41912;51.022;3.664;2024-02-14T11:09:45;12.60;99.90
56044;DHT22;41912;51.022;3.664;2024-02-14T11:12:11;12.60;99.90
56044;DHT22;41912;51.022;3.664;2024-02-14T11:14:37;12.70;99.90
56044;DHT22;41912;51.022;3.664;2024-02-14T11:17:10;12.70;99.90
56044;DHT22;41912;51.022;3.664;2024-02-14T11:19:36;12.80;99.90
56044;DHT22;41912;51.022;3.664;2024-02-14T11:22:18;12.80;99.90
56044;DHT22;41912;51.022;3.664;2024-02-14T11:24:48;12.90;99.90
56044;DHT22;41912;51.022;3.664;2024-02-14T11:27:14;12.80;99.90
56044;DHT22;41912;51.022;3.664;2024-02-14T11:29:41;12.90;99.90
56044;DHT22;41912;51.022;3.664;2024-02-14T11:32:17;12.80;99.90
56044;DHT22;41912;51.022;3.664;2024-02-14T11:34:43;12.90;99.90
56044;DHT22;41912;51.022;3.664;2024-02-14T11:37:19;12.90;99.90
56044;DHT22;41912;51.022;3.664;2024-02-14T11:39:46;13.00;99.90
56044;DHT22;41912;51.022;3.664;2024-02-14T11:42:12;13.00;99.90
56044;DHT22;41912;51.022;3.664;2024-02-14T11:44:40;13.00;99.90
56044;DHT22;41912;51.022;3.664;2024-02-14T11:47:09;13.00;99.90
56044;DHT22;41912;51.022;3.664;2024-02-14T11:49:36;13.00;99.90
56044;DHT22;41912;51.022;3.664;2024-02-14T11:52:02;13.00;99.90
56044;DHT22;41912;51.022;3.664;2024-02-14T11:54:29;12.90;99.90
56044;DHT22;41912;51.022;3.664;2024-02-14T11:56:55;13.00;99.90
56044;DHT22;41912;51.022;3.664;2024-02-14T11:59:21;13.00;99.90
56044;DHT22;41912;51.022;3.664;2024-02-14T12:01:48;13.00;99.90
56044;DHT22;41912;51.022;3.664;2024-02-14T12:04:17;13.10;99.90
56044;DHT22;41912;51.022;3.664;2024-02-14T12:06:43;13.10;99.90
56044;DHT22;41912;51.022;3.664;2024-02-14T12:09:09;13.10;99.90
56044;DHT22;41912;51.022;3.664;2024-02-14T12:11:39;13.20;99.90
56044;DHT22;41912;51.022;3.664;2024-02-14T12:14:08;13.20;99.90
56044;DHT22;41912;51.022;3.664;2024-02-14T12:16:36;13.20;99.90
56044;DHT22;41912;51.022;3.664;2024-02-14T12:19:09;13.20;99.90
56044;DHT22;41912;51.022;3.664;2024-02-14T12:21:39;13.30;99.90
56044;DHT22;41912;51.022;3.664;2024-02-14T12:24:12;13.30;99.90
56044;DHT22;41912;51.022;3.664;2024-02-14T12:26:40;13.30;99.90
56044;DHT22;41912;51.022;3.664;2024-02-14T12:29:07;13.30;99.90
56044;DHT22;41912;51.022;3.664;2024-02-14T12:31:34;13.40;99.90
56044;DHT22;41912;51.022;3.664;2024-02-14T12:34:01;13.30;99.90
56044;DHT22;41912;51.022;3.664;2024-02-14T12:36:31;13.30;99.90
56044;DHT22;41912;51.022;3.664;2024-02-14T12:38:59;13.40;99.90
56044;DHT22;41912;51.022;3.664;2024-02-14T12:41:25;13.30;99.90
56044;DHT22;41912;51.022;3.664;2024-02-14T12:43:52;13.30;99.90
56044;DHT22;41912;51.022;3.664;2024-02-14T12:46:19;13.30;99.90
56044;DHT22;41912;51.022;3.664;2024-02-14T12:48:45;13.20;99.90
56044;DHT22;41912;51.022;3.664;2024-02-14T12:51:11;13.20;99.90
56044;DHT22;41912;51.022;3.664;2024-02-14T12:53:36;13.30;99.90
56044;DHT22;41912;51.022;3.664;2024-02-14T12:56:02;13.30;99.90
56044;DHT22;41912;51.022;3.664;2024-02-14T12:58:30;13.30;99.90
56044;DHT22;41912;51.022;3.664;2024-02-14T13:00:56;13.40;99.90
56044;DHT22;41912;51.022;3.664;2024-02-14T13:03:21;13.40;99.90
56044;DHT22;41912;51.022;3.664;2024-02-14T13:05:48;13.40;99.90
56044;DHT22;41912;51.022;3.664;2024-02-14T13:08:13;13.40;99.90
56044;DHT22;41912;51.022;3.664;2024-02-14T13:10:43;13.40;99.90
56044;DHT22;41912;51.022;3.664;2024-02-14T13:13:09;13.50;99.90
56044;DHT22;41912;51.022;3.664;2024-02-14T13:15:34;13.40;99.90
56044;DHT22;41912;51.022;3.664;2024-02-14T13:18:01;13.40;99.90
56044;DHT22;41912;51.022;3.664;2024-02-14T13:20:28;13.40;99.90
56044;DHT22;41912;51.022;3.664;2024-02-14T13:22:54;13.40;99.90
56044;DHT22;41912;51.022;3.664;2024-02-14T13:25:20;13.40;99.90
56044;DHT22;41912;51.022;3.664;2024-02-14T13:27:45;13.40;99.90
56044;DHT22;41912;51.022;3.664;2024-02-14T13:30:11;13.40;99.90
56044;DHT22;41912;51.022;3.664;2024-02-14T13:32:37;13.40;99.90
56044;DHT22;41912;51.022;3.664;2024-02-14T13:35:03;13.40;99.90
56044;DHT22;41912;51.022;3.664;2024-02-14T13:37:31;13.40;99.90
56044;DHT22;41912;51.022;3.664;2024-02-14T13:39:57;13.50;99.90
56044;DHT22;41912;51.022;3.664;2024-02-14T13:42:23;13.50;99.90
56044;DHT22;41912;51.022;3.664;2024-02-14T13:44:50;13.60;99.90
56044;DHT22;41912;51.022;3.664;2024-02-14T13:47:18;13.50;99.90
56044;DHT22;41912;51.022;3.664;2024-02-14T13:49:44;13.50;99.90
56044;DHT22;41912;51.022;3.664;2024-02-14T13:52:10;13.60;99.90
56044;DHT22;41912;51.022;3.664;2024-02-14T13:54:36;13.60;99.90
56044;DHT22;41912;51.022;3.664;2024-02-14T13:57:02;13.60;99.90
56044;DHT22;41912;51.022;3.664;2024-02-14T13:59:28;13.70;99.90
56044;DHT22;41912;51.022;3.664;2024-02-14T14:01:54;13.70;99.90
56044;DHT22;41912;51.022;3.664;2024-02-14T14:04:20;13.70;99.90
56044;DHT22;41912;51.022;3.664;2024-02-14T14:06:46;13.70;99.90
56044;DHT22;41912;51.022;3.664;2024-02-14T14:09:13;13.70;99.90
56044;DHT22;41912;51.022;3.664;2024-02-14T14:11:38;13.70;99.90
56044;DHT22;41912;51.022;3.664;2024-02-14T14:14:05;13.70;99.90
56044;DHT22;41912;51.022;3.664;2024-02-14T14:16:31;13.70;99.90
56044;DHT22;41912;51.022;3.664;2024-02-14T14:18:58;13.70;99.90
56044;DHT22;41912;51.022;3.664;2024-02-14T14:21:24;13.70;99.90
56044;DHT22;41912;51.022;3.664;2024-02-14T14:23:50;13.80;99.90
56044;DHT22;41912;51.022;3.664;2024-02-14T14:26:15;13.80;99.90
56044;DHT22;41912;51.022;3.664;2024-02-14T14:28:41;13.70;99.90
56044;DHT22;41912;51.022;3.664;2024-02-14T14:31:08;13.70;99.90
56044;DHT22;41912;51.022;3.664;2024-02-14T14:33:36;13.70;99.90
56044;DHT22;41912;51.022;3.664;2024-02-14T14:36:02;13.80;99.90
56044;DHT22;41912;51.022;3.664;2024-02-14T14:38:28;13.80;99.90
56044;DHT22;41912;51.022;3.664;2024-02-14T14:40:55;13.80;99.90
56044;DHT22;41912;51.022;3.664;2024-02-14T14:43:21;13.80;99.90
56044;DHT22;41912;51.022;3.664;2024-02-14T14:45:47;13.90;99.90
56044;DHT22;41912;51.022;3.664;2024-02-14T14:48:12;13.90;99.90
56044;DHT22;41912;51.022;3.664;2024-02-14T14:50:38;13.90;99.90
56044;DHT22;41912;51.022;3.664;2024-02-14T14:53:04;13.90;99.90
56044;DHT22;41912;51.022;3.664;2024-02-14T14:58:14;13.90;99.90
56044;DHT22;41912;51.022;3.664;2024-02-14T15:00:40;13.90;99.90
56044;DHT22;41912;51.022;3.664;2024-02-14T15:03:08;13.90;99.90
56044;DHT22;41912;51.022;3.664;2024-02-14T15:05:33;13.90;99.90
56044;DHT22;41912;51.022;3.664;2024-02-14T15:07:59;14.00;99.90
56044;DHT22;41912;51.022;3.664;2024-02-14T15:10:24;14.00;99.90
56044;DHT22;41912;51.022;3.664;2024-02-14T15:12:50;14.00;99.90
56044;DHT22;41912;51.022;3.664;2024-02-14T15:15:16;14.00;99.90
56044;DHT22;41912;51.022;3.664;2024-02-14T15:17:43;14.10;99.90
56044;DHT22;41912;51.022;3.664;2024-02-14T15:20:08;14.10;99.90
56044;DHT22;41912;51.022;3.664;2024-02-14T15:22:34;14.10;99.90
56044;DHT22;41912;51.022;3.664;2024-02-14T15:25:00;14.10;99.90
56044;DHT22;41912;51.022;3.664;2024-02-14T15:27:25;14.10;99.90